createdAt,value
2019-02-10T00:01:44.961Z,9.47
2019-02-10T00:04:12.145Z,4.30
2019-02-10T00:06:39.331Z,6.73
2019-02-10T00:09:06.494Z,9.33
2019-02-10T00:11:33.704Z,7.70
2019-02-10T00:14:00.877Z,11.73
2019-02-10T00:16:28.044Z,9.37
2019-02-10T00:18:55.231Z,11.33
2019-02-10T00:21:22.429Z,10.83
2019-02-10T00:23:49.599Z,9.10
2019-02-10T00:26:16.774Z,11.23
2019-02-10T00:28:43.978Z,6.97
2019-02-10T00:31:11.148Z,13.60
2019-02-10T00:33:38.322Z,10.17
2019-02-10T00:36:05.529Z,12.37
2019-02-10T00:38:32.693Z,16.17
2019-02-10T00:40:59.890Z,8.63
2019-02-10T00:43:27.062Z,6.73
2019-02-10T00:45:54.270Z,10.33
2019-02-10T00:48:21.510Z,5.47
2019-02-10T00:50:48.677Z,7.07
2019-02-10T00:53:15.854Z,4.27
2019-02-10T00:55:43.030Z,5.93
2019-02-10T00:58:10.194Z,7.57
2019-02-10T01:00:37.387Z,6.20
2019-02-10T01:03:04.585Z,5.77
2019-02-10T01:05:31.827Z,8.17
2019-02-10T01:07:58.993Z,6.00
2019-02-10T01:10:26.543Z,10.20
2019-02-10T01:12:53.712Z,7.03
2019-02-10T01:15:21.504Z,11.17
2019-02-10T01:17:48.711Z,5.90
2019-02-10T01:20:15.907Z,7.07
2019-02-10T01:22:43.085Z,8.60
2019-02-10T01:25:10.266Z,12.07
2019-02-10T01:27:37.447Z,9.70
2019-02-10T01:30:06.248Z,6.67
2019-02-10T01:32:33.432Z,9.43
2019-02-10T01:35:00.613Z,9.50
2019-02-10T01:37:27.789Z,11.77
2019-02-10T01:39:55.004Z,9.10
2019-02-10T01:42:22.203Z,7.83
2019-02-10T01:44:49.363Z,5.87
2019-02-10T01:47:16.546Z,9.27
2019-02-10T01:49:43.745Z,10.90
2019-02-10T01:52:10.937Z,11.67
2019-02-10T01:54:38.110Z,9.57
2019-02-10T01:57:05.307Z,17.03
2019-02-10T01:59:32.483Z,19.83
2019-02-10T02:01:59.653Z,15.20
2019-02-10T02:04:26.849Z,19.90
2019-02-10T02:06:57.893Z,12.77
2019-02-10T02:09:22.954Z,10.20
2019-02-10T02:11:50.119Z,6.47
2019-02-10T02:14:17.311Z,11.60
2019-02-10T02:16:44.510Z,10.13
2019-02-10T02:19:11.723Z,12.07
2019-02-10T02:21:38.908Z,9.40
2019-02-10T02:24:06.106Z,9.97
2019-02-10T02:26:33.309Z,6.40
2019-02-10T02:29:00.492Z,13.23
2019-02-10T02:31:27.674Z,10.90
2019-02-10T02:33:54.942Z,13.97
2019-02-10T02:36:22.106Z,9.03
2019-02-10T02:38:49.307Z,13.47
2019-02-10T02:41:16.543Z,8.90
2019-02-10T02:43:43.715Z,6.77
2019-02-10T02:46:10.918Z,14.47
2019-02-10T02:48:38.102Z,13.93
2019-02-10T02:51:05.280Z,6.47
2019-02-10T02:53:32.473Z,6.73
2019-02-10T02:55:59.641Z,7.97
2019-02-10T02:58:26.824Z,15.37
2019-02-10T03:00:54.011Z,11.47
2019-02-10T03:03:21.178Z,6.00
2019-02-10T03:05:48.340Z,8.03
2019-02-10T03:08:15.562Z,15.27
2019-02-10T03:10:42.742Z,11.53
2019-02-10T03:13:09.922Z,12.47
2019-02-10T03:15:37.178Z,9.73
2019-02-10T03:18:04.338Z,7.17
2019-02-10T03:20:31.523Z,13.77
2019-02-10T03:22:58.721Z,10.53
2019-02-10T03:25:25.968Z,7.70
2019-02-10T03:27:53.131Z,8.90
2019-02-10T03:30:20.321Z,7.27
2019-02-10T03:32:47.567Z,13.77
2019-02-10T03:35:14.728Z,6.67
2019-02-10T03:37:41.938Z,15.17
2019-02-10T03:40:09.796Z,11.37
2019-02-10T03:42:37.013Z,10.10
2019-02-10T03:45:05.551Z,14.20
2019-02-10T03:47:32.741Z,10.50
2019-02-10T03:49:59.908Z,7.27
2019-02-10T03:52:27.079Z,9.13
2019-02-10T03:54:54.273Z,8.57
2019-02-10T03:57:21.442Z,9.50
2019-02-10T03:59:48.622Z,5.07
2019-02-10T04:02:15.807Z,10.03
2019-02-10T04:04:42.991Z,8.40
2019-02-10T04:07:10.223Z,12.43
2019-02-10T04:09:37.455Z,10.93
2019-02-10T04:12:04.640Z,12.03
2019-02-10T04:14:31.850Z,11.57
2019-02-10T04:16:59.014Z,7.20
2019-02-10T04:19:26.183Z,9.00
2019-02-10T04:21:53.363Z,16.83
2019-02-10T04:24:20.538Z,11.97
2019-02-10T04:26:47.728Z,10.33
2019-02-10T04:29:14.941Z,8.20
2019-02-10T04:31:42.128Z,13.13
2019-02-10T04:34:09.304Z,6.10
2019-02-10T04:36:36.478Z,6.47
2019-02-10T04:39:04.920Z,6.23
2019-02-10T04:41:32.162Z,12.00
2019-02-10T04:43:59.360Z,5.90
2019-02-10T04:46:26.533Z,7.03
2019-02-10T04:48:53.755Z,7.63
2019-02-10T04:51:20.934Z,9.73
2019-02-10T04:53:48.108Z,7.70
2019-02-10T04:56:15.859Z,7.37
2019-02-10T04:58:43.038Z,9.73
2019-02-10T05:01:10.212Z,8.77
2019-02-10T05:03:37.403Z,10.60
2019-02-10T05:06:04.659Z,15.33
2019-02-10T05:08:31.862Z,13.17
2019-02-10T05:10:59.092Z,13.03
2019-02-10T05:13:26.258Z,13.23
2019-02-10T05:15:53.450Z,6.70
2019-02-10T05:18:22.676Z,11.60
2019-02-10T05:20:49.856Z,17.17
2019-02-10T05:23:17.058Z,11.27
2019-02-10T05:25:44.241Z,7.70
2019-02-10T05:28:11.446Z,9.50
2019-02-10T05:30:38.677Z,17.80
2019-02-10T05:33:05.874Z,7.77
2019-02-10T05:35:33.048Z,9.80
2019-02-10T05:38:04.238Z,8.67
2019-02-10T05:40:29.111Z,10.50
2019-02-10T05:42:56.299Z,12.10
2019-02-10T05:45:23.491Z,9.30
2019-02-10T05:47:50.727Z,6.20
2019-02-10T05:50:17.910Z,14.23
2019-02-10T05:52:45.155Z,8.20
2019-02-10T05:55:12.347Z,6.10
2019-02-10T05:57:39.514Z,6.97
2019-02-10T06:00:07.257Z,4.13
2019-02-10T06:02:34.441Z,10.10
2019-02-10T06:05:02.101Z,6.00
2019-02-10T06:07:29.363Z,10.93
2019-02-10T06:09:56.525Z,15.47
2019-02-10T06:12:23.706Z,11.73
2019-02-10T06:14:50.891Z,10.30
2019-02-10T06:17:18.082Z,12.07
2019-02-10T06:19:45.262Z,9.03
2019-02-10T06:22:13.413Z,5.60
2019-02-10T06:24:40.609Z,6.40
2019-02-10T06:27:07.787Z,10.57
2019-02-10T06:29:34.962Z,12.90
2019-02-10T06:32:02.172Z,8.97
2019-02-10T06:34:29.364Z,12.17
2019-02-10T06:36:56.559Z,9.23
2019-02-10T06:39:23.745Z,11.60
2019-02-10T06:41:50.908Z,8.43
2019-02-10T06:44:18.104Z,15.90
2019-02-10T06:46:45.364Z,10.73
2019-02-10T06:49:12.616Z,6.63
2019-02-10T06:51:39.806Z,10.00
2019-02-10T06:54:06.986Z,12.87
2019-02-10T06:56:34.162Z,5.27
2019-02-10T06:59:01.383Z,5.93
2019-02-10T07:01:33.219Z,8.80
2019-02-10T07:04:01.970Z,11.03
2019-02-10T07:06:29.162Z,11.13
2019-02-10T07:08:56.334Z,10.77
2019-02-10T07:11:23.509Z,11.47
2019-02-10T07:13:52.550Z,10.10
2019-02-10T07:16:36.609Z,15.07
2019-02-10T07:19:22.008Z,9.30
2019-02-10T07:21:49.365Z,10.77
2019-02-10T07:24:35.085Z,19.37
2019-02-10T07:27:12.734Z,15.27
2019-02-10T07:29:41.542Z,15.10
2019-02-10T07:32:09.007Z,7.13
2019-02-10T07:34:48.307Z,9.20
2019-02-10T07:37:20.218Z,10.73
2019-02-10T07:40:05.470Z,11.90
2019-02-10T07:42:34.585Z,10.23
2019-02-10T07:45:12.201Z,7.50
2019-02-10T07:47:41.030Z,7.47
2019-02-10T07:50:18.700Z,11.10
2019-02-10T07:52:47.527Z,11.83
2019-02-10T07:55:22.378Z,10.57
2019-02-10T07:57:51.189Z,9.43
2019-02-10T08:00:34.878Z,14.93
2019-02-10T08:03:20.255Z,9.30
2019-02-10T08:05:55.165Z,14.13
2019-02-10T08:08:26.741Z,12.40
2019-02-10T08:11:04.268Z,13.33
2019-02-10T08:13:45.201Z,17.37
2019-02-10T08:16:13.998Z,17.63
2019-02-10T08:18:42.810Z,7.13
2019-02-10T08:21:14.607Z,8.97
2019-02-10T08:23:52.291Z,9.80
2019-02-10T08:26:21.094Z,7.60
2019-02-10T08:28:58.894Z,15.67
2019-02-10T08:31:30.334Z,12.87
2019-02-10T08:33:59.367Z,15.17
2019-02-10T08:36:30.900Z,8.27
2019-02-10T08:39:02.355Z,11.13
2019-02-10T08:41:37.298Z,12.97
2019-02-10T08:44:18.196Z,15.00
2019-02-10T08:46:49.814Z,16.90
2019-02-10T08:49:21.118Z,8.60
2019-02-10T08:51:49.943Z,13.70
2019-02-10T08:54:17.194Z,13.80
2019-02-10T08:56:44.377Z,16.40
2019-02-10T08:59:11.646Z,11.10
2019-02-10T09:01:39.382Z,14.87
2019-02-10T09:04:06.572Z,11.67
2019-02-10T09:06:33.781Z,16.67
2019-02-10T09:09:02.614Z,13.63
2019-02-10T09:11:29.931Z,9.90
2019-02-10T09:13:57.103Z,10.47
2019-02-10T09:16:24.359Z,17.53
2019-02-10T09:18:51.687Z,9.37
2019-02-10T09:21:18.935Z,10.73
2019-02-10T09:23:46.136Z,12.53
2019-02-10T09:26:13.315Z,14.40
2019-02-10T09:28:40.498Z,11.37
2019-02-10T09:31:07.703Z,14.43
2019-02-10T09:33:35.064Z,14.50
2019-02-10T09:36:02.259Z,12.43
2019-02-10T09:38:29.458Z,13.47
2019-02-10T09:40:56.637Z,11.63
2019-02-10T09:43:23.838Z,13.57
2019-02-10T09:45:51.010Z,11.57
2019-02-10T09:48:18.223Z,12.43
2019-02-10T09:50:45.394Z,11.20
2019-02-10T09:53:12.597Z,17.53
2019-02-10T09:55:39.774Z,14.27
2019-02-10T09:58:06.950Z,15.03
2019-02-10T10:00:34.158Z,14.20
2019-02-10T10:03:01.390Z,14.97
2019-02-10T10:05:28.561Z,11.33
2019-02-10T10:07:55.776Z,11.57
2019-02-10T10:10:22.965Z,11.00
2019-02-10T10:12:50.216Z,14.27
2019-02-10T10:15:17.486Z,15.00
2019-02-10T10:17:44.736Z,7.97
2019-02-10T10:20:13.787Z,11.27
2019-02-10T10:22:40.987Z,12.93
2019-02-10T10:25:08.810Z,11.30
2019-02-10T10:27:35.993Z,16.47
2019-02-10T10:30:04.526Z,13.17
2019-02-10T10:32:31.697Z,13.20
2019-02-10T10:34:58.950Z,8.80
2019-02-10T10:37:26.155Z,10.73
2019-02-10T10:39:54.420Z,11.00
2019-02-10T10:42:22.265Z,13.37
2019-02-10T10:44:49.458Z,7.53
2019-02-10T10:47:16.646Z,16.57
2019-02-10T10:49:43.824Z,11.03
2019-02-10T10:52:11.003Z,13.03
2019-02-10T10:54:42.840Z,11.00
2019-02-10T10:57:07.092Z,11.50
2019-02-10T10:59:34.276Z,12.23
2019-02-10T11:02:01.439Z,9.53
2019-02-10T11:04:28.628Z,8.53
2019-02-10T11:06:55.804Z,14.73
2019-02-10T11:09:23.049Z,8.00
2019-02-10T11:11:51.886Z,11.73
2019-02-10T11:14:20.164Z,5.27
2019-02-10T11:16:47.436Z,5.20
2019-02-10T11:19:14.685Z,6.97
2019-02-10T11:21:41.855Z,5.80
2019-02-10T11:24:09.052Z,9.43
2019-02-10T11:26:36.236Z,9.77
2019-02-10T11:29:03.416Z,8.03
2019-02-10T11:31:30.654Z,10.50
2019-02-10T11:33:57.870Z,10.23
2019-02-10T11:36:25.065Z,10.03
2019-02-10T11:38:52.230Z,9.43
2019-02-10T11:41:19.420Z,11.30
2019-02-10T11:43:46.585Z,7.20
2019-02-10T11:46:13.747Z,10.13
2019-02-10T11:48:40.942Z,6.17
2019-02-10T11:51:08.115Z,10.07
2019-02-10T11:53:35.283Z,7.57
2019-02-10T11:56:02.474Z,4.87
2019-02-10T11:58:29.655Z,11.70
2019-02-10T12:00:56.851Z,9.70
2019-02-10T12:03:24.024Z,8.60
2019-02-10T12:05:51.232Z,7.30
2019-02-10T12:08:18.496Z,11.00
2019-02-10T12:10:45.673Z,8.00
2019-02-10T12:13:12.889Z,9.00
2019-02-10T12:15:40.062Z,9.57
2019-02-10T12:18:07.240Z,7.73
2019-02-10T12:20:34.457Z,7.30
2019-02-10T12:23:01.631Z,5.80
2019-02-10T12:25:28.826Z,7.53
2019-02-10T12:27:56.055Z,8.37
2019-02-10T12:30:23.918Z,4.63
2019-02-10T12:32:51.093Z,8.07
2019-02-10T12:35:18.335Z,9.53
2019-02-10T12:37:45.528Z,5.57
2019-02-10T12:40:12.723Z,3.93
2019-02-10T12:42:39.910Z,8.00
2019-02-10T12:45:08.654Z,3.70
2019-02-10T12:47:35.834Z,3.60
2019-02-10T12:50:03.779Z,6.67
2019-02-10T12:52:30.958Z,4.63
2019-02-10T12:54:58.142Z,4.77
2019-02-10T12:57:25.356Z,5.37
2019-02-10T12:59:53.356Z,3.23
2019-02-10T13:02:20.601Z,4.00
2019-02-10T13:04:47.898Z,3.10
2019-02-10T13:07:15.143Z,5.13
2019-02-10T13:09:42.316Z,3.93
2019-02-10T13:12:09.491Z,5.63
2019-02-10T13:14:36.700Z,2.43
2019-02-10T13:17:03.937Z,6.07
2019-02-10T13:19:31.099Z,4.60
2019-02-10T13:21:58.296Z,4.53
2019-02-10T13:24:25.458Z,2.23
2019-02-10T13:26:52.672Z,3.70
2019-02-10T13:29:19.923Z,5.07
2019-02-10T13:31:47.135Z,5.40
2019-02-10T13:34:14.416Z,4.10
2019-02-10T13:36:41.666Z,4.50
2019-02-10T13:39:08.918Z,4.07
2019-02-10T13:41:36.164Z,3.43
2019-02-10T13:44:04.309Z,4.40
2019-02-10T13:46:31.513Z,2.93
2019-02-10T13:48:58.769Z,4.70
2019-02-10T13:51:26.028Z,5.07
2019-02-10T13:53:53.306Z,2.80
2019-02-10T13:56:20.474Z,5.47
2019-02-10T13:58:47.652Z,4.07
2019-02-10T14:01:14.876Z,3.50
2019-02-10T14:03:42.117Z,5.57
2019-02-10T14:06:09.315Z,5.17
2019-02-10T14:08:36.566Z,4.43
2019-02-10T14:11:03.759Z,3.33
2019-02-10T14:13:30.941Z,5.60
2019-02-10T14:15:58.122Z,2.60
2019-02-10T14:18:25.323Z,4.97
2019-02-10T14:20:52.499Z,4.00
2019-02-10T14:23:19.702Z,6.03
2019-02-10T14:25:46.890Z,5.20
2019-02-10T14:28:14.066Z,6.03
2019-02-10T14:30:41.263Z,4.33
2019-02-10T14:33:08.454Z,4.33
2019-02-10T14:35:35.694Z,3.30
2019-02-10T14:38:02.962Z,3.00
2019-02-10T14:40:33.748Z,7.40
2019-02-10T14:42:59.121Z,4.40
2019-02-10T14:45:26.303Z,1.73
2019-02-10T14:47:53.482Z,4.03
2019-02-10T14:50:20.650Z,3.73
2019-02-10T14:52:47.854Z,4.23
2019-02-10T14:55:15.035Z,6.43
2019-02-10T14:57:42.282Z,3.13
2019-02-10T15:00:14.720Z,4.00
2019-02-10T15:02:41.914Z,4.13
2019-02-10T15:05:09.641Z,6.37
2019-02-10T15:07:36.809Z,2.40
2019-02-10T15:10:05.631Z,4.10
2019-02-10T15:12:32.806Z,2.87
2019-02-10T15:14:59.977Z,4.23
2019-02-10T15:17:27.170Z,3.43
2019-02-10T15:19:54.340Z,3.77
2019-02-10T15:22:21.817Z,7.53
2019-02-10T15:24:49.073Z,4.13
2019-02-10T15:27:16.331Z,2.30
2019-02-10T15:29:43.502Z,3.50
2019-02-10T15:32:16.701Z,5.73
2019-02-10T15:34:39.608Z,6.13
2019-02-10T15:37:06.853Z,4.53
2019-02-10T15:39:34.053Z,3.83
2019-02-10T15:42:09.055Z,3.73
2019-02-10T15:44:30.142Z,4.07
2019-02-10T15:46:57.345Z,5.17
2019-02-10T15:49:24.579Z,7.30
2019-02-10T15:51:51.761Z,3.03
2019-02-10T15:54:18.944Z,4.03
2019-02-10T15:56:46.127Z,4.13
2019-02-10T15:59:13.304Z,4.93
2019-02-10T16:01:40.478Z,4.90
2019-02-10T16:04:07.643Z,4.20
2019-02-10T16:06:34.843Z,4.97
2019-02-10T16:09:02.088Z,6.10
2019-02-10T16:11:29.254Z,6.57
2019-02-10T16:13:56.458Z,5.60
2019-02-10T16:16:23.668Z,5.57
2019-02-10T16:18:50.917Z,4.70
2019-02-10T16:21:18.096Z,10.07
2019-02-10T16:23:45.307Z,5.33
2019-02-10T16:26:12.504Z,3.73
2019-02-10T16:28:39.734Z,4.33
2019-02-10T16:31:06.938Z,3.57
2019-02-10T16:33:34.130Z,10.77
2019-02-10T16:36:01.323Z,5.27
2019-02-10T16:38:28.544Z,5.90
2019-02-10T16:40:55.771Z,5.63
2019-02-10T16:43:22.982Z,3.37
2019-02-10T16:45:51.140Z,4.57
2019-02-10T16:48:18.424Z,3.77
2019-02-10T16:50:45.670Z,4.20
2019-02-10T16:53:12.947Z,5.27
2019-02-10T16:55:40.111Z,4.93
2019-02-10T16:58:07.290Z,2.70
2019-02-10T17:00:34.478Z,4.30
2019-02-10T17:03:01.894Z,4.27
2019-02-10T17:05:29.242Z,6.03
2019-02-10T17:07:56.804Z,4.97
2019-02-10T17:10:25.911Z,5.03
2019-02-10T17:12:53.493Z,5.47
2019-02-10T17:15:20.802Z,3.80
2019-02-10T17:17:48.003Z,4.53
2019-02-10T17:20:15.540Z,4.43
2019-02-10T17:22:42.744Z,3.90
2019-02-10T17:25:13.798Z,5.17
2019-02-10T17:27:44.132Z,6.57
2019-02-10T17:30:13.955Z,5.93
2019-02-10T17:32:41.170Z,3.60
2019-02-10T17:35:09.711Z,4.27
2019-02-10T17:37:36.879Z,3.03
2019-02-10T17:40:05.706Z,3.80
2019-02-10T17:42:33.756Z,4.73
2019-02-10T17:45:00.942Z,3.80
2019-02-10T17:47:28.125Z,3.03
2019-02-10T17:49:55.326Z,5.90
2019-02-10T17:52:22.526Z,4.23
2019-02-10T17:54:49.800Z,5.33
2019-02-10T17:57:17.045Z,5.07
2019-02-10T17:59:44.247Z,5.57
2019-02-10T18:02:11.859Z,5.43
2019-02-10T18:04:39.027Z,3.73
2019-02-10T18:07:06.233Z,4.90
2019-02-10T18:09:33.504Z,3.63
2019-02-10T18:12:00.690Z,3.37
2019-02-10T18:14:38.540Z,4.70
2019-02-10T18:17:15.903Z,7.27
2019-02-10T18:19:47.430Z,3.63
2019-02-10T18:22:18.904Z,4.07
2019-02-10T18:24:47.743Z,4.50
2019-02-10T18:27:19.516Z,2.90
2019-02-10T18:29:48.357Z,3.53
2019-02-10T18:32:23.129Z,4.27
2019-02-10T18:34:57.682Z,3.43
2019-02-10T18:37:44.419Z,4.73
2019-02-10T18:40:18.942Z,3.73
2019-02-10T18:42:50.458Z,4.57
2019-02-10T18:45:19.331Z,3.57
2019-02-10T18:47:53.755Z,6.40
2019-02-10T18:50:40.779Z,3.63
2019-02-10T18:53:24.295Z,3.70
2019-02-10T18:55:53.137Z,3.43
2019-02-10T18:58:21.956Z,2.83
2019-02-10T19:00:53.439Z,2.50
2019-02-10T19:03:22.277Z,3.47
2019-02-10T19:05:53.721Z,4.27
2019-02-10T19:08:34.555Z,2.77
2019-02-10T19:11:03.393Z,2.53
2019-02-10T19:13:45.358Z,3.37
2019-02-10T19:16:14.170Z,2.10
2019-02-10T19:18:43.002Z,2.40
2019-02-10T19:21:14.746Z,5.03
2019-02-10T19:23:59.817Z,2.80
2019-02-10T19:26:28.744Z,1.67
2019-02-10T19:28:57.581Z,2.00
2019-02-10T19:31:38.328Z,1.50
2019-02-10T19:34:23.424Z,1.63
2019-02-10T19:37:01.031Z,2.37
2019-02-10T19:39:38.739Z,1.90
2019-02-10T19:42:14.648Z,1.83
2019-02-10T19:44:45.984Z,1.73
2019-02-10T19:47:30.832Z,1.43
2019-02-10T19:49:59.672Z,1.50
2019-02-10T19:52:37.368Z,1.60
2019-02-10T19:55:09.839Z,1.87
2019-02-10T19:57:54.696Z,1.60
2019-02-10T20:00:29.070Z,1.73
2019-02-10T20:03:06.723Z,2.80
2019-02-10T20:05:52.501Z,2.20
2019-02-10T20:08:36.072Z,1.63
2019-02-10T20:11:13.570Z,2.00
2019-02-10T20:13:44.984Z,3.37
2019-02-10T20:16:13.802Z,2.60
2019-02-10T20:18:45.495Z,2.70
2019-02-10T20:21:29.126Z,2.43
2019-02-10T20:24:13.987Z,2.33
2019-02-10T20:26:59.057Z,2.00
2019-02-10T20:29:27.912Z,2.47
2019-02-10T20:32:08.367Z,2.40
2019-02-10T20:34:37.191Z,2.70
2019-02-10T20:37:06.018Z,3.07
2019-02-10T20:39:43.387Z,2.50
2019-02-10T20:42:15.006Z,5.87
2019-02-10T20:45:00.559Z,2.40
2019-02-10T20:47:41.430Z,3.67
2019-02-10T20:50:27.173Z,1.80
2019-02-10T20:52:56.008Z,2.33
2019-02-10T20:55:24.830Z,2.07
2019-02-10T20:58:02.600Z,2.10
2019-02-10T21:00:34.036Z,2.30
2019-02-10T21:03:11.676Z,1.63
2019-02-10T21:05:40.503Z,3.43
2019-02-10T21:08:12.009Z,1.77
2019-02-10T21:10:57.052Z,2.30
2019-02-10T21:13:42.054Z,2.07
2019-02-10T21:16:27.102Z,1.03
2019-02-10T21:19:02.446Z,1.30
2019-02-10T21:21:40.416Z,1.87
2019-02-10T21:24:15.303Z,2.73
2019-02-10T21:26:57.095Z,2.00
2019-02-10T21:29:26.081Z,1.37
2019-02-10T21:32:09.992Z,1.17
2019-02-10T21:34:44.937Z,2.53
2019-02-10T21:37:19.574Z,1.43
2019-02-10T21:40:03.223Z,5.53
2019-02-10T21:42:37.769Z,2.63
2019-02-10T21:45:07.651Z,2.23
2019-02-10T21:47:36.499Z,0.83
2019-02-10T21:50:04.831Z,2.77
2019-02-10T21:52:32.057Z,0.90
2019-02-10T21:54:59.262Z,2.40
2019-02-10T21:57:26.440Z,1.23
2019-02-10T21:59:53.623Z,1.10
2019-02-10T22:02:20.818Z,0.83
2019-02-10T22:04:47.998Z,2.30
2019-02-10T22:07:15.213Z,0.90
2019-02-10T22:09:42.391Z,0.73
2019-02-10T22:12:09.578Z,0.57
2019-02-10T22:14:36.742Z,0.60
2019-02-10T22:17:03.946Z,0.77
2019-02-10T22:19:31.139Z,2.00
2019-02-10T22:21:58.325Z,0.80
2019-02-10T22:24:25.506Z,0.60
2019-02-10T22:26:52.697Z,4.33
2019-02-10T22:29:19.891Z,1.07
2019-02-10T22:31:47.087Z,0.70
2019-02-10T22:34:14.275Z,0.60
2019-02-10T22:36:41.473Z,2.87
2019-02-10T22:39:08.656Z,0.60
2019-02-10T22:41:35.905Z,0.47
2019-02-10T22:44:03.136Z,1.87
2019-02-10T22:46:30.333Z,0.57
2019-02-10T22:48:57.495Z,1.23
2019-02-10T22:51:24.690Z,0.60
2019-02-10T22:53:51.875Z,0.40
2019-02-10T22:56:19.054Z,0.60
2019-02-10T22:58:46.298Z,0.60
2019-02-10T23:01:13.477Z,1.20
2019-02-10T23:03:40.715Z,1.47
2019-02-10T23:06:07.944Z,1.67
2019-02-10T23:08:35.126Z,0.60
2019-02-10T23:11:02.316Z,1.03
2019-02-10T23:13:29.494Z,0.60
2019-02-10T23:15:56.682Z,0.70
2019-02-10T23:18:23.841Z,1.60
2019-02-10T23:20:51.050Z,2.30
2019-02-10T23:23:18.223Z,0.43
2019-02-10T23:25:45.401Z,0.50
2019-02-10T23:28:12.593Z,0.70
2019-02-10T23:30:39.780Z,0.60
2019-02-10T23:33:06.958Z,0.50
2019-02-10T23:35:34.210Z,0.90
2019-02-10T23:38:01.450Z,0.50
2019-02-10T23:40:28.641Z,2.40
2019-02-10T23:43:01.924Z,0.40
2019-02-10T23:45:24.731Z,0.43
2019-02-10T23:47:51.901Z,0.40
2019-02-10T23:50:19.082Z,0.60
2019-02-10T23:52:46.254Z,1.03
2019-02-10T23:55:13.442Z,1.23
2019-02-10T23:57:40.619Z,0.60
